Time;durP1;ratioP1;P1;durP2;ratioP2;P2;SDS_P1;SDS_P2;PMS_P1;PMS_P2;Temp;Humidity;BMP_temperature;BMP_pressure;BME280_temperature;BME280_humidity;BME280_pressure;Samples;Min_cycle;Max_cycle;Signal;HPM_P1;HPM_P2
2022/07/18 00:02:05;;;;;;;0.90;0.20;;;32.00;26.30;;;;;;5066743;28;20040;-61
2022/07/18 00:04:32;;;;;;;1.17;0.20;;;31.90;26.30;;;;;;5065486;28;20536;-61
2022/07/18 00:06:59;;;;;;;1.05;0.20;;;31.90;26.40;;;;;;5064759;28;20036;-61
2022/07/18 00:09:26;;;;;;;1.10;0.30;;;31.90;26.50;;;;;;5066201;28;20040;-61
2022/07/18 00:11:54;;;;;;;0.30;0.20;;;31.90;26.70;;;;;;5065922;28;20043;-61
2022/07/18 00:14:22;;;;;;;1.05;0.20;;;31.90;26.80;;;;;;5067441;28;20087;-60
2022/07/18 00:16:50;;;;;;;1.27;0.25;;;31.90;26.80;;;;;;5064975;28;20040;-60
2022/07/18 00:19:19;;;;;;;4.20;0.20;;;31.90;26.90;;;;;;5060592;28;20152;-60
2022/07/18 00:21:46;;;;;;;0.68;0.20;;;31.90;26.90;;;;;;5059618;28;20040;-60
2022/07/18 00:24:13;;;;;;;0.52;0.20;;;31.80;26.90;;;;;;5059398;28;20037;-60
2022/07/18 00:26:40;;;;;;;0.60;0.32;;;31.80;26.90;;;;;;5064089;28;20127;-60
2022/07/18 00:29:08;;;;;;;2.42;0.20;;;31.80;27.00;;;;;;5067460;28;20075;-61
2022/07/18 00:31:36;;;;;;;1.35;0.20;;;31.80;27.70;;;;;;5047446;28;20063;-61
2022/07/18 00:34:03;;;;;;;0.63;0.30;;;31.80;27.20;;;;;;5065588;28;20412;-61
2022/07/18 00:36:32;;;;;;;1.15;0.20;;;31.70;27.20;;;;;;5065312;28;20043;-61
2022/07/18 00:38:59;;;;;;;0.80;0.70;;;31.70;27.70;;;;;;5065444;28;20505;-61
2022/07/18 00:41:26;;;;;;;4.22;0.20;;;31.70;27.30;;;;;;5068240;28;20044;-61
2022/07/18 00:43:54;;;;;;;2.30;0.20;;;31.70;27.30;;;;;;5067397;28;20521;-61
2022/07/18 00:46:24;;;;;;;1.10;0.28;;;31.70;27.40;;;;;;5066264;28;20064;-60
2022/07/18 00:48:52;;;;;;;0.20;0.17;;;31.60;27.40;;;;;;5059607;28;20060;-60
2022/07/18 00:51:20;;;;;;;2.17;0.40;;;31.60;28.00;;;;;;5066864;28;20051;-60
2022/07/18 00:53:50;;;;;;;1.85;0.68;;;31.60;27.50;;;;;;5065187;28;20048;-60
2022/07/18 00:56:20;;;;;;;0.75;0.28;;;31.50;27.50;;;;;;5067006;28;20062;-61
2022/07/18 00:58:47;;;;;;;1.40;0.20;;;31.50;27.60;;;;;;5065903;28;20059;-61
2022/07/18 01:03:59;;;;;;;0.82;0.20;;;31.50;27.80;;;;;;5042297;28;20045;-61
2022/07/18 01:06:26;;;;;;;2.50;0.28;;;31.50;27.90;;;;;;5065180;28;20044;-61
2022/07/18 01:08:55;;;;;;;0.55;0.30;;;31.50;27.90;;;;;;5065140;28;20119;-61
2022/07/18 01:11:22;;;;;;;1.52;0.52;;;31.50;28.00;;;;;;5068180;28;20044;-61
2022/07/18 01:13:49;;;;;;;0.80;0.20;;;31.50;28.00;;;;;;5069059;28;20076;-61
2022/07/18 01:16:17;;;;;;;0.60;0.20;;;31.50;28.10;;;;;;5068662;28;20040;-61
2022/07/18 01:18:45;;;;;;;2.55;0.47;;;31.50;28.10;;;;;;5068764;28;20127;-61
2022/07/18 01:21:15;;;;;;;0.30;0.30;;;31.40;28.00;;;;;;5068964;28;20413;-62
2022/07/18 01:23:42;;;;;;;2.75;0.25;;;31.50;28.10;;;;;;5069348;28;20471;-61
2022/07/18 01:26:09;;;;;;;2.05;0.40;;;31.40;28.10;;;;;;5070354;28;20814;-62
2022/07/18 01:28:37;;;;;;;1.38;0.20;;;31.40;28.20;;;;;;5068498;28;20041;-62
2022/07/18 01:31:05;;;;;;;1.55;0.40;;;31.40;28.30;;;;;;5067974;28;20036;-61
2022/07/18 01:33:33;;;;;;;0.50;0.50;;;31.40;28.30;;;;;;5068590;28;20113;-61
2022/07/18 01:36:00;;;;;;;1.73;0.20;;;31.40;28.40;;;;;;5050327;28;20049;-60
2022/07/18 01:38:30;;;;;;;0.82;0.30;;;31.30;28.40;;;;;;5069125;28;20047;-61
2022/07/18 01:40:57;;;;;;;0.52;0.20;;;31.40;28.50;;;;;;5069380;28;20052;-61
2022/07/18 01:43:25;;;;;;;2.05;0.25;;;31.30;28.60;;;;;;5067994;28;20424;-58
2022/07/18 01:45:52;;;;;;;1.58;0.32;;;31.30;28.60;;;;;;5068422;28;20590;-60
2022/07/18 01:48:20;;;;;;;0.57;0.20;;;31.30;28.70;;;;;;5068268;28;20143;-60
2022/07/18 01:50:47;;;;;;;1.05;0.30;;;31.30;28.70;;;;;;5068411;28;20049;-61
2022/07/18 01:53:14;;;;;;;2.03;0.10;;;31.30;28.70;;;;;;5070097;28;20132;-62
2022/07/18 01:55:43;;;;;;;0.77;0.28;;;31.30;28.60;;;;;;5048961;28;20048;-62
2022/07/18 01:58:10;;;;;;;0.52;0.50;;;31.30;28.60;;;;;;5068091;28;20047;-62
2022/07/18 02:00:37;;;;;;;0.90;0.28;;;31.30;28.70;;;;;;5067140;28;20404;-61
2022/07/18 02:03:04;;;;;;;0.85;0.20;;;31.30;28.70;;;;;;5067864;28;20837;-62
2022/07/18 02:05:31;;;;;;;1.48;0.20;;;31.30;28.80;;;;;;5068624;28;20049;-61
2022/07/18 02:07:58;;;;;;;1.02;0.20;;;31.20;28.80;;;;;;5069365;28;20136;-61
2022/07/18 02:10:25;;;;;;;0.55;0.20;;;31.20;28.90;;;;;;5067694;28;20044;-60
2022/07/18 02:12:54;;;;;;;5.40;0.75;;;31.20;28.90;;;;;;5067563;28;20098;-61
2022/07/18 02:18:17;;;;;;;1.63;0.80;;;31.20;28.90;;;;;;4702053;23;20059;-61
2022/07/18 02:20:44;;;;;;;1.10;0.28;;;31.10;28.90;;;;;;4948001;28;20842;-61
2022/07/18 02:23:11;;;;;;;0.63;0.50;;;31.10;28.90;;;;;;4947682;28;20045;-60
2022/07/18 02:25:38;;;;;;;4.60;0.13;;;31.10;28.90;;;;;;4932529;29;20050;-60
2022/07/18 02:28:07;;;;;;;1.45;0.20;;;31.10;29.00;;;;;;4937582;28;20075;-60
2022/07/18 02:30:34;;;;;;;0.28;0.17;;;31.10;29.10;;;;;;4932387;29;20054;-60
2022/07/18 02:33:01;;;;;;;0.60;0.20;;;31.00;29.00;;;;;;4931835;29;20623;-59
2022/07/18 02:35:28;;;;;;;1.75;0.10;;;31.10;29.10;;;;;;4932476;28;20048;-61
2022/07/18 02:37:56;;;;;;;0.50;0.35;;;31.00;29.20;;;;;;4935218;29;20063;-62
2022/07/18 02:40:23;;;;;;;0.80;0.50;;;31.10;29.30;;;;;;4943487;29;20106;-61
2022/07/18 02:42:50;;;;;;;0.20;0.10;;;31.00;29.30;;;;;;4932128;29;20047;-61
2022/07/18 02:45:18;;;;;;;0.30;0.20;;;31.00;29.20;;;;;;4932188;29;20123;-60
2022/07/18 02:47:45;;;;;;;1.00;0.32;;;31.10;29.30;;;;;;4935447;29;20047;-62
2022/07/18 02:50:13;;;;;;;3.28;0.63;;;31.10;29.20;;;;;;4950754;28;20051;-62
2022/07/18 02:52:41;;;;;;;1.02;0.32;;;31.00;29.20;;;;;;4935132;28;20050;-60
2022/07/18 02:55:09;;;;;;;0.65;0.10;;;31.00;29.20;;;;;;4931926;29;20122;-60
2022/07/18 02:57:36;;;;;;;0.50;0.20;;;31.00;29.30;;;;;;4932036;29;20573;-60
2022/07/18 03:00:04;;;;;;;0.47;0.15;;;30.90;29.20;;;;;;4931800;29;20052;-60
2022/07/18 03:02:33;;;;;;;0.98;0.10;;;30.90;29.40;;;;;;4931118;29;20048;-61
2022/07/18 03:05:00;;;;;;;0.20;0.20;;;30.90;29.50;;;;;;4931823;29;20062;-59
2022/07/18 03:07:27;;;;;;;1.92;0.60;;;30.90;29.50;;;;;;4931698;29;20043;-60
2022/07/18 03:09:54;;;;;;;1.77;0.38;;;30.90;29.50;;;;;;4942602;29;20151;-60
2022/07/18 03:12:21;;;;;;;0.25;0.25;;;30.90;29.40;;;;;;4931650;28;20039;-61
2022/07/18 03:14:48;;;;;;;1.73;0.20;;;30.90;29.50;;;;;;4949141;29;20142;-60
2022/07/18 03:17:15;;;;;;;1.75;0.20;;;30.90;29.50;;;;;;4931762;28;20043;-60
2022/07/18 03:19:44;;;;;;;2.58;0.15;;;30.80;29.60;;;;;;4948903;28;20142;-59
2022/07/18 03:22:11;;;;;;;0.45;0.10;;;30.80;29.60;;;;;;4949915;28;20039;-59
2022/07/18 03:24:38;;;;;;;1.00;0.20;;;30.80;29.60;;;;;;4949910;28;20051;-59
2022/07/18 03:27:05;;;;;;;4.68;0.20;;;30.80;29.60;;;;;;4949481;28;20047;-59
2022/07/18 03:29:32;;;;;;;1.20;0.30;;;30.80;29.60;;;;;;4950435;28;20126;-60
2022/07/18 03:32:00;;;;;;;0.30;0.30;;;30.70;29.60;;;;;;4942732;28;20134;-59
2022/07/18 03:34:27;;;;;;;0.75;0.30;;;30.70;29.70;;;;;;4930917;29;20111;-59
2022/07/18 03:36:55;;;;;;;0.80;0.75;;;30.60;29.80;;;;;;4931220;29;20040;-59
2022/07/18 03:39:22;;;;;;;2.05;0.40;;;30.60;29.90;;;;;;4941099;29;20043;-60
2022/07/18 03:41:51;;;;;;;0.30;0.15;;;30.50;29.90;;;;;;4940996;28;20039;-60
2022/07/18 03:44:18;;;;;;;0.20;0.20;;;30.50;30.00;;;;;;4945615;28;20392;-60
2022/07/18 03:46:45;;;;;;;0.25;0.15;;;30.40;30.00;;;;;;4947947;28;20415;-59
2022/07/18 03:49:12;;;;;;;3.63;0.75;;;30.40;30.00;;;;;;4950221;28;20242;-61
2022/07/18 03:51:39;;;;;;;0.68;0.40;;;30.40;30.00;;;;;;4950465;28;20725;-62
2022/07/18 03:54:09;;;;;;;1.20;0.63;;;30.30;29.90;;;;;;4950136;28;20043;-62
2022/07/18 03:56:36;;;;;;;2.63;0.40;;;30.30;29.70;;;;;;4931854;29;20087;-63
2022/07/18 03:59:03;;;;;;;0.52;0.20;;;30.30;29.70;;;;;;4931721;29;20048;-62
2022/07/18 04:01:30;;;;;;;0.40;0.30;;;30.20;29.60;;;;;;4931383;29;20127;-62
2022/07/18 04:03:57;;;;;;;0.90;0.20;;;30.20;29.60;;;;;;4931650;29;20071;-61
2022/07/18 04:06:25;;;;;;;1.88;0.40;;;30.20;29.50;;;;;;4931667;29;20154;-61
2022/07/18 04:08:52;;;;;;;1.45;0.30;;;30.10;29.30;;;;;;4932296;29;20130;-61
2022/07/18 04:11:23;;;;;;;2.20;1.05;;;30.10;29.40;;;;;;4943135;29;20746;-61
2022/07/18 04:13:51;;;;;;;1.10;0.22;;;30.10;29.50;;;;;;4931520;29;20052;-60
2022/07/18 04:16:18;;;;;;;3.90;0.47;;;30.10;29.50;;;;;;4931701;29;20054;-61
2022/07/18 04:18:45;;;;;;;1.52;0.28;;;30.10;29.60;;;;;;4943196;29;20170;-61
2022/07/18 04:21:12;;;;;;;0.20;0.20;;;30.10;29.60;;;;;;4950034;28;20419;-61
2022/07/18 04:23:39;;;;;;;0.40;0.30;;;30.10;29.70;;;;;;4949991;28;20043;-61
2022/07/18 04:26:07;;;;;;;0.35;0.35;;;30.10;29.80;;;;;;4949991;28;20055;-61
2022/07/18 04:28:35;;;;;;;2.28;0.20;;;30.10;29.70;;;;;;4949209;28;20060;-62
2022/07/18 04:31:02;;;;;;;0.68;0.20;;;30.10;29.80;;;;;;4949870;28;20046;-60
2022/07/18 04:33:29;;;;;;;1.08;0.20;;;30.10;29.80;;;;;;4949811;28;20047;-61
2022/07/18 04:35:56;;;;;;;0.52;0.28;;;30.10;29.70;;;;;;4949764;28;20051;-60
2022/07/18 04:38:23;;;;;;;1.30;0.10;;;30.10;30.00;;;;;;4948668;29;20482;-60
2022/07/18 04:40:50;;;;;;;2.50;0.20;;;30.00;29.60;;;;;;4939651;28;20051;-61
2022/07/18 04:43:17;;;;;;;0.40;0.40;;;30.00;29.60;;;;;;4930875;29;20044;-61
2022/07/18 04:45:46;;;;;;;0.30;0.10;;;30.00;29.40;;;;;;4937880;28;20177;-61
2022/07/18 04:48:13;;;;;;;1.02;0.15;;;30.00;29.40;;;;;;4944412;28;20098;-61
2022/07/18 04:50:40;;;;;;;0.40;0.10;;;29.90;29.20;;;;;;4953331;28;20066;-61
2022/07/18 04:53:07;;;;;;;3.65;0.28;;;29.90;29.20;;;;;;4949640;28;20071;-62
2022/07/18 04:55:34;;;;;;;1.38;0.20;;;29.90;29.20;;;;;;4937369;29;20062;-61
2022/07/18 04:58:01;;;;;;;0.57;0.20;;;29.90;29.20;;;;;;4952879;28;20422;-61
2022/07/18 05:00:28;;;;;;;0.90;0.20;;;29.80;29.20;;;;;;4952570;28;20043;-60
2022/07/18 05:02:58;;;;;;;0.55;0.50;;;29.80;29.30;;;;;;4946546;29;20055;-61
2022/07/18 05:05:26;;;;;;;1.38;0.73;;;29.80;29.30;;;;;;4949552;28;20044;-61
2022/07/18 05:07:54;;;;;;;0.47;0.20;;;29.80;29.30;;;;;;4934605;29;20099;-61
2022/07/18 05:10:23;;;;;;;5.05;0.10;;;29.80;29.20;;;;;;4934878;29;20066;-60
2022/07/18 05:12:54;;;;;;;1.17;0.15;;;29.80;29.20;;;;;;4936032;29;20048;-61
2022/07/18 05:15:23;;;;;;;0.80;0.20;;;29.80;29.20;;;;;;4934650;29;20134;-60
2022/07/18 05:17:51;;;;;;;1.05;0.20;;;29.80;29.20;;;;;;4938893;29;20075;-60
2022/07/18 05:20:21;;;;;;;2.95;0.28;;;29.80;29.10;;;;;;4952907;28;20487;-61
2022/07/18 05:22:48;;;;;;;2.92;0.17;;;29.80;29.10;;;;;;4935952;28;20044;-61
2022/07/18 05:25:15;;;;;;;2.13;0.15;;;29.70;29.00;;;;;;4934362;29;20048;-62
2022/07/18 05:27:43;;;;;;;3.03;0.22;;;29.70;28.90;;;;;;4934093;29;20052;-61
2022/07/18 05:30:12;;;;;;;1.95;0.20;;;29.70;28.80;;;;;;4934190;29;20500;-61
2022/07/18 05:32:39;;;;;;;4.45;0.47;;;29.70;28.80;;;;;;4943300;28;20047;-61
2022/07/18 05:35:07;;;;;;;3.60;0.10;;;29.70;28.80;;;;;;4934057;29;20048;-62
2022/07/18 05:37:37;;;;;;;1.25;0.10;;;29.70;28.60;;;;;;4934129;29;20082;-62
2022/07/18 05:40:05;;;;;;;0.85;0.10;;;29.60;28.60;;;;;;4944962;29;20039;-62
2022/07/18 05:42:32;;;;;;;1.00;0.10;;;29.60;28.50;;;;;;4933755;29;20496;-62
2022/07/18 05:44:59;;;;;;;6.70;1.30;;;29.60;28.50;;;;;;4933926;29;20050;-61
2022/07/18 05:47:26;;;;;;;4.10;0.52;;;29.60;28.50;;;;;;4935629;29;20095;-61
2022/07/18 05:49:53;;;;;;;1.05;0.20;;;29.60;28.60;;;;;;4952303;28;20054;-61
2022/07/18 05:52:20;;;;;;;0.85;0.10;;;29.60;28.60;;;;;;4952327;28;20079;-60
2022/07/18 05:54:49;;;;;;;0.38;0.10;;;29.60;28.60;;;;;;4952405;28;20155;-62
2022/07/18 05:57:16;;;;;;;2.95;0.20;;;29.70;28.70;;;;;;4951622;28;20043;-62
2022/07/18 05:59:43;;;;;;;2.85;0.20;;;29.70;28.70;;;;;;4952085;29;20045;-62
2022/07/18 06:02:10;;;;;;;1.23;0.30;;;29.70;28.60;;;;;;4951519;28;20055;-61
2022/07/18 06:04:37;;;;;;;3.30;0.20;;;29.70;28.60;;;;;;4942001;28;20040;-61
2022/07/18 06:07:04;;;;;;;1.70;0.10;;;29.70;28.50;;;;;;4933660;29;20046;-61
2022/07/18 06:09:31;;;;;;;2.67;0.17;;;29.70;28.50;;;;;;4936812;29;20423;-61
2022/07/18 06:12:01;;;;;;;2.15;0.20;;;29.70;28.50;;;;;;4933157;29;20048;-61
2022/07/18 06:14:28;;;;;;;0.65;0.10;;;29.80;28.60;;;;;;4943637;29;20052;-60
2022/07/18 06:16:55;;;;;;;3.53;0.10;;;29.80;28.60;;;;;;4951720;28;20039;-60
2022/07/18 06:19:23;;;;;;;1.92;0.20;;;29.80;28.60;;;;;;4951388;29;20125;-60
2022/07/18 06:21:50;;;;;;;0.88;0.10;;;29.80;28.50;;;;;;4942051;28;20086;-61
2022/07/18 06:24:17;;;;;;;3.20;0.10;;;29.80;28.50;;;;;;4933318;29;20111;-61
2022/07/18 06:26:44;;;;;;;0.35;0.10;;;29.80;28.40;;;;;;4932960;29;20071;-61
2022/07/18 06:29:12;;;;;;;3.15;0.47;;;29.80;28.50;;;;;;4932885;29;20040;-61
2022/07/18 06:31:39;;;;;;;2.67;0.20;;;29.80;28.50;;;;;;4933110;29;20044;-61
2022/07/18 06:34:06;;;;;;;4.63;0.68;;;29.80;28.50;;;;;;4932982;29;20103;-61
2022/07/18 06:36:34;;;;;;;1.23;0.10;;;29.80;28.40;;;;;;4933068;29;20047;-61
2022/07/18 06:39:08;;;;;;;1.65;0.10;;;29.80;28.40;;;;;;4939974;29;20050;-60
2022/07/18 06:41:35;;;;;;;2.75;0.10;;;29.90;28.50;;;;;;4935187;28;20048;-62
2022/07/18 06:44:02;;;;;;;1.88;0.30;;;29.90;28.50;;;;;;4937418;29;20412;-63
2022/07/18 06:46:30;;;;;;;3.28;0.10;;;29.90;28.40;;;;;;4933766;29;20056;-62
2022/07/18 06:48:57;;;;;;;0.30;0.10;;;29.90;28.30;;;;;;4941580;29;20039;-62
2022/07/18 06:51:25;;;;;;;0.70;0.10;;;29.90;28.20;;;;;;4963100;28;20081;-63
2022/07/18 06:53:52;;;;;;;3.40;0.10;;;29.90;28.20;;;;;;4939734;29;20040;-60
2022/07/18 06:56:20;;;;;;;0.20;0.10;;;29.90;28.20;;;;;;4941526;29;20050;-62
2022/07/18 06:58:48;;;;;;;2.60;0.10;;;29.90;28.20;;;;;;4940981;28;20090;-62
2022/07/18 07:01:16;;;;;;;3.03;0.10;;;29.90;28.20;;;;;;4940638;29;20522;-62
2022/07/18 07:03:45;;;;;;;0.40;0.10;;;29.90;28.20;;;;;;4943391;29;20102;-62
2022/07/18 07:06:13;;;;;;;4.40;0.20;;;29.90;28.30;;;;;;4938908;29;20126;-62
2022/07/18 07:08:40;;;;;;;2.72;0.10;;;30.00;28.40;;;;;;4937020;28;20146;-62
2022/07/18 07:11:07;;;;;;;1.88;0.20;;;30.00;28.40;;;;;;4941074;29;20452;-61
2022/07/18 07:13:34;;;;;;;2.15;0.25;;;30.00;28.40;;;;;;4939985;28;20063;-61
2022/07/18 07:16:01;;;;;;;2.08;0.10;;;30.00;28.40;;;;;;4936639;29;20081;-61
2022/07/18 07:18:28;;;;;;;0.90;0.10;;;30.10;28.50;;;;;;4940456;29;20047;-62
2022/07/18 07:20:57;;;;;;;3.55;0.10;;;30.10;28.60;;;;;;4936712;28;20043;-62
2022/07/18 07:23:24;;;;;;;6.53;0.20;;;30.10;28.60;;;;;;4947398;28;20042;-64
2022/07/18 07:25:51;;;;;;;5.40;0.10;;;30.10;28.70;;;;;;4940463;29;20047;-62
2022/07/18 07:28:18;;;;;;;1.20;0.10;;;30.10;28.50;;;;;;4937090;29;20147;-61
2022/07/18 07:30:45;;;;;;;3.92;0.10;;;30.20;28.50;;;;;;4940774;29;20524;-61
2022/07/18 07:33:12;;;;;;;0.40;0.10;;;30.20;28.50;;;;;;4938976;28;20080;-61
2022/07/18 07:35:39;;;;;;;3.40;0.25;;;30.20;28.40;;;;;;4942228;29;20047;-59
2022/07/18 07:38:08;;;;;;;1.05;0.17;;;30.20;28.30;;;;;;4934692;28;20170;-59
2022/07/18 07:40:35;;;;;;;0.10;0.10;;;30.20;28.40;;;;;;4947184;28;20508;-64
2022/07/18 07:43:07;;;;;;;4.55;0.20;;;30.30;28.50;;;;;;4943646;28;21050;-63
2022/07/18 07:45:34;;;;;;;1.05;0.25;;;30.30;28.80;;;;;;4939748;28;20143;-61
2022/07/18 07:48:02;;;;;;;3.20;0.10;;;30.30;28.80;;;;;;4938369;29;20134;-63
2022/07/18 07:50:29;;;;;;;0.75;0.40;;;30.40;28.80;;;;;;4949593;28;20053;-62
2022/07/18 07:52:56;;;;;;;2.88;0.10;;;30.40;28.70;;;;;;4946006;29;20040;-65
2022/07/18 07:55:25;;;;;;;1.00;0.22;;;30.40;28.80;;;;;;4940999;28;20052;-63
2022/07/18 07:57:52;;;;;;;3.10;0.10;;;30.40;28.80;;;;;;4931644;29;20039;-64
2022/07/18 08:00:19;;;;;;;0.10;0.10;;;30.40;28.80;;;;;;4944298;29;20050;-64
2022/07/18 08:02:57;;;;;;;1.77;0.10;;;30.50;28.70;;;;;;4931809;29;20492;-63
2022/07/18 08:05:25;;;;;;;1.95;0.10;;;30.60;28.60;;;;;;4944151;29;20039;-62
2022/07/18 08:07:52;;;;;;;2.83;0.10;;;30.50;28.80;;;;;;4945562;28;20043;-64
2022/07/18 08:10:19;;;;;;;0.98;0.20;;;30.60;28.60;;;;;;4941076;28;20786;-65
2022/07/18 08:12:48;;;;;;;0.57;0.30;;;30.60;28.70;;;;;;4949856;28;20054;-65
2022/07/18 08:15:16;;;;;;;0.73;0.40;;;30.60;28.70;;;;;;4950006;28;20058;-64
2022/07/18 08:17:43;;;;;;;3.10;0.10;;;30.60;28.80;;;;;;4941015;28;20062;-64
2022/07/18 08:20:12;;;;;;;3.50;0.20;;;30.60;28.70;;;;;;4949663;29;20516;-61
2022/07/18 08:22:56;;;;;;;1.55;0.20;;;30.70;28.90;;;;;;4940980;28;20115;-64
2022/07/18 08:25:24;;;;;;;0.20;0.10;;;30.70;29.10;;;;;;4938510;29;20464;-65
2022/07/18 08:27:52;;;;;;;2.80;0.10;;;30.70;28.50;;;;;;4942242;29;20040;-65
2022/07/18 08:30:20;;;;;;;1.83;0.22;;;30.70;28.50;;;;;;4946589;28;20043;-63
2022/07/18 08:32:48;;;;;;;0.85;0.43;;;30.70;28.50;;;;;;4950514;29;20039;-64
2022/07/18 08:35:15;;;;;;;3.35;0.20;;;30.70;28.40;;;;;;4939553;29;20089;-63
2022/07/18 08:37:42;;;;;;;0.63;0.10;;;30.70;28.40;;;;;;4944785;29;20047;-49
2022/07/18 08:40:10;;;;;;;2.25;0.10;;;30.70;28.40;;;;;;4945453;28;20062;-52
2022/07/18 08:42:37;;;;;;;0.30;0.20;;;30.80;28.40;;;;;;4942845;29;20054;-54
2022/07/18 08:45:07;;;;;;;5.75;0.32;;;30.80;28.50;;;;;;4946744;29;20050;-60
2022/07/18 08:47:35;;;;;;;2.90;0.10;;;30.80;28.90;;;;;;4933554;29;20050;-60
2022/07/18 08:50:02;;;;;;;5.00;0.40;;;30.80;29.10;;;;;;4931319;29;20516;-62
2022/07/18 08:52:30;;;;;;;5.93;0.20;;;31.00;29.20;;;;;;4949971;29;20039;-61
2022/07/18 08:54:57;;;;;;;3.72;0.43;;;31.10;29.20;;;;;;4949446;29;20130;-63
2022/07/18 08:57:24;;;;;;;4.07;0.45;;;31.30;29.00;;;;;;4946055;29;20046;-57
2022/07/18 08:59:52;;;;;;;3.97;0.20;;;31.60;28.90;;;;;;4941481;28;20139;-59
2022/07/18 09:02:26;;;;;;;3.30;0.82;;;31.80;28.70;;;;;;4939296;29;20114;-60
2022/07/18 09:04:53;;;;;;;5.25;0.30;;;32.00;28.50;;;;;;4939233;28;20043;-59
2022/07/18 09:07:29;;;;;;;0.90;0.25;;;32.20;28.40;;;;;;4931914;28;20043;-59
2022/07/18 09:09:58;;;;;;;1.02;0.45;;;32.30;28.20;;;;;;4939374;28;20071;-59
2022/07/18 09:12:26;;;;;;;4.25;0.70;;;32.50;28.10;;;;;;4949427;28;20043;-55
2022/07/18 09:14:54;;;;;;;0.57;0.25;;;32.50;28.10;;;;;;4946185;28;20438;-61
2022/07/18 09:17:24;;;;;;;0.63;0.10;;;32.70;28.10;;;;;;4945700;28;20045;-52
2022/07/18 09:19:59;;;;;;;2.30;0.30;;;32.80;28.00;;;;;;4939467;28;20051;-60
2022/07/18 09:22:30;;;;;;;1.42;0.40;;;33.00;27.90;;;;;;4944344;28;20067;-72
2022/07/18 09:25:00;;;;;;;4.22;0.40;;;33.10;27.80;;;;;;4947376;29;20118;-63
2022/07/18 09:27:31;;;;;;;4.05;0.20;;;33.20;27.70;;;;;;4949745;28;20058;-60
2022/07/18 09:30:17;;;;;;;0.38;0.35;;;33.30;27.70;;;;;;4938879;28;20130;-59
2022/07/18 09:32:46;;;;;;;;;;;33.50;27.70;;;;;;4942211;28;20086;-64
2022/07/18 09:35:15;;;;;;;3.78;0.20;;;33.50;27.90;;;;;;4944173;28;20355;-64
2022/07/18 09:37:58;;;;;;;2.28;0.73;;;33.50;27.20;;;;;;4944137;29;20050;-63
2022/07/18 09:40:27;;;;;;;1.48;0.22;;;33.70;27.00;;;;;;4942695;29;20040;-62
2022/07/18 09:42:55;;;;;;;2.28;0.45;;;33.80;26.90;;;;;;4947734;28;20039;-63
2022/07/18 09:45:28;;;;;;;3.80;0.80;;;33.90;26.80;;;;;;4946092;28;20613;-63
2022/07/18 09:47:57;;;;;;;3.22;0.50;;;34.00;26.80;;;;;;4956403;28;20154;-67
2022/07/18 09:50:30;;;;;;;2.97;0.43;;;34.00;26.60;;;;;;4946168;28;20869;-68
2022/07/18 09:53:06;;;;;;;0.88;0.20;;;34.10;26.50;;;;;;4943919;29;20146;-66
2022/07/18 09:55:34;;;;;;;7.03;0.65;;;34.20;26.50;;;;;;4947200;28;20047;-63
2022/07/18 09:58:04;;;;;;;1.38;0.40;;;34.20;26.40;;;;;;4949365;28;20118;-64
2022/07/18 10:00:35;;;;;;;3.83;0.20;;;34.30;26.50;;;;;;4939413;28;20051;-65
2022/07/18 10:03:06;;;;;;;2.90;0.40;;;34.30;26.40;;;;;;4943743;29;20051;-66
2022/07/18 10:05:35;;;;;;;1.08;0.10;;;34.40;26.30;;;;;;4945291;29;20047;-66
2022/07/18 10:08:04;;;;;;;1.88;0.70;;;34.40;26.30;;;;;;4942667;29;20035;-69
2022/07/18 10:10:32;;;;;;;0.80;0.73;;;34.40;26.30;;;;;;4946562;29;20665;-68
2022/07/18 10:13:00;;;;;;;2.58;0.30;;;34.50;26.40;;;;;;4964376;28;20125;-69
2022/07/18 10:15:29;;;;;;;0.60;0.60;;;34.50;26.30;;;;;;4947276;29;20055;-68
2022/07/18 10:17:57;;;;;;;3.83;0.40;;;34.60;26.30;;;;;;4943018;29;20700;-67
2022/07/18 10:20:33;;;;;;;5.05;0.20;;;34.60;26.20;;;;;;4946408;28;20525;-66
2022/07/18 10:23:07;;;;;;;4.45;0.40;;;34.70;26.20;;;;;;4940024;29;20664;-66
2022/07/18 10:25:34;;;;;;;1.08;0.32;;;34.70;26.10;;;;;;4939525;28;20056;-67
2022/07/18 10:28:10;;;;;;;11.55;0.68;;;34.80;26.20;;;;;;4931777;29;20040;-66
2022/07/18 10:30:45;;;;;;;1.95;0.77;;;34.80;26.10;;;;;;4948943;28;20047;-68
2022/07/18 10:33:38;;;;;;;1.75;0.25;;;34.80;26.10;;;;;;4938635;28;20051;-66
2022/07/18 10:36:09;;;;;;;0.30;0.20;;;34.90;26.10;;;;;;4941977;29;20051;-66
2022/07/18 10:38:36;;;;;;;2.22;0.32;;;34.90;26.10;;;;;;4943308;28;20051;-69
2022/07/18 10:41:09;;;;;;;0.20;0.10;;;35.00;26.00;;;;;;4944885;29;20059;-66
2022/07/18 10:43:39;;;;;;;0.30;0.20;;;35.00;26.00;;;;;;4937524;28;20066;-68
2022/07/18 10:46:08;;;;;;;1.38;0.32;;;35.00;25.90;;;;;;4933755;28;20760;-66
2022/07/18 10:48:56;;;;;;;2.88;0.15;;;35.10;25.90;;;;;;4940102;29;20061;-67
2022/07/18 10:51:32;;;;;;;0.73;0.20;;;35.10;25.80;;;;;;4944671;29;20074;-64
2022/07/18 10:54:13;;;;;;;0.65;0.20;;;35.10;25.90;;;;;;4941666;29;20106;-69
2022/07/18 10:57:06;;;;;;;2.22;0.25;;;35.20;25.90;;;;;;4942748;29;20043;-69
2022/07/18 10:59:34;;;;;;;0.40;0.40;;;35.20;25.90;;;;;;4945557;29;20535;-66
2022/07/18 11:02:03;;;;;;;1.85;0.20;;;35.20;26.00;;;;;;4946973;28;20042;-66
2022/07/18 11:04:34;;;;;;;2.15;0.25;;;35.20;26.00;;;;;;4943277;29;20079;-68
2022/07/18 11:07:08;;;;;;;2.53;0.20;;;35.30;26.10;;;;;;4929361;29;20114;-67
2022/07/18 11:09:44;;;;;;;8.60;0.20;;;35.30;26.10;;;;;;4930546;29;20457;-71
2022/07/18 11:12:31;;;;;;;2.08;0.30;;;35.40;26.20;;;;;;4941158;29;20062;-68
2022/07/18 11:15:10;;;;;;;0.60;0.38;;;35.40;26.10;;;;;;4942623;29;20528;-68
2022/07/18 11:18:01;;;;;;;4.70;0.38;;;35.40;26.20;;;;;;4937897;29;20050;-67
2022/07/18 11:20:42;;;;;;;2.30;0.20;;;35.40;26.20;;;;;;4939668;29;20047;-66
2022/07/18 11:23:20;;;;;;;3.47;0.32;;;35.50;26.20;;;;;;4941089;28;20039;-68
2022/07/18 11:25:48;;;;;;;4.68;0.30;;;35.60;26.30;;;;;;4937187;29;20146;-69
2022/07/18 11:28:15;;;;;;;0.43;0.20;;;35.60;26.40;;;;;;4939193;28;20436;-70
2022/07/18 11:30:43;;;;;;;2.28;0.50;;;35.60;26.30;;;;;;4938720;29;20043;-67
2022/07/18 11:33:25;;;;;;;3.42;0.30;;;35.60;26.10;;;;;;4939233;29;20045;-67
2022/07/18 11:35:52;;;;;;;2.40;0.47;;;35.70;26.10;;;;;;4941308;29;20066;-65
2022/07/18 11:38:20;;;;;;;2.80;0.20;;;35.70;26.10;;;;;;4945437;28;20084;-66
2022/07/18 11:40:49;;;;;;;0.30;0.10;;;35.70;26.00;;;;;;4941467;29;20126;-67
2022/07/18 11:43:21;;;;;;;1.90;0.25;;;35.80;26.10;;;;;;4938243;29;20078;-69
2022/07/18 11:45:49;;;;;;;0.47;0.13;;;35.90;26.10;;;;;;4935238;29;20075;-69
2022/07/18 11:48:22;;;;;;;3.05;0.50;;;35.90;26.10;;;;;;4939856;28;20039;-67
2022/07/18 11:50:49;;;;;;;0.60;0.13;;;35.90;25.90;;;;;;4938216;29;20047;-69
2022/07/18 11:53:17;;;;;;;0.15;0.10;;;36.00;25.80;;;;;;4935812;29;20046;-69
2022/07/18 11:55:45;;;;;;;0.20;0.20;;;36.00;25.80;;;;;;4942976;28;20071;-66
2022/07/18 11:58:14;;;;;;;0.10;0.10;;;36.10;25.80;;;;;;4942024;28;20044;-66
2022/07/18 12:00:42;;;;;;;0.55;0.55;;;36.10;25.80;;;;;;4942889;28;20122;-66
2022/07/18 12:03:13;;;;;;;1.20;0.10;;;36.10;25.60;;;;;;4942831;28;20044;-64
2022/07/18 12:05:44;;;;;;;1.75;0.65;;;36.20;25.50;;;;;;4940433;29;20602;-66
2022/07/18 12:08:33;;;;;;;0.20;0.20;;;36.20;25.90;;;;;;4947712;28;20571;-65
2022/07/18 12:11:09;;;;;;;0.60;0.20;;;36.30;25.50;;;;;;4947679;28;20062;-64
2022/07/18 12:13:52;;;;;;;0.47;0.47;;;36.30;25.40;;;;;;4942181;28;20043;-64
2022/07/18 12:16:34;;;;;;;0.60;0.10;;;36.30;25.30;;;;;;4941885;29;20043;-64
2022/07/18 12:19:07;;;;;;;1.30;0.13;;;36.30;25.20;;;;;;4944923;28;20066;-68
2022/07/18 12:21:50;;;;;;;0.10;0.10;;;36.30;25.10;;;;;;4945454;29;20233;-66
2022/07/18 12:24:26;;;;;;;0.10;0.10;;;36.40;25.10;;;;;;4929908;29;20170;-65
2022/07/18 12:27:25;;;;;;;1.52;0.30;;;36.40;25.10;;;;;;4928973;29;20056;-64
2022/07/18 12:30:02;;;;;;;1.17;0.10;;;36.40;24.90;;;;;;4945510;29;20142;-64
2022/07/18 12:32:30;;;;;;;1.52;0.10;;;36.50;24.90;;;;;;4947469;28;20047;-64
2022/07/18 12:35:00;;;;;;;0.10;0.10;;;36.50;24.70;;;;;;4947171;28;20046;-65
2022/07/18 12:37:29;;;;;;;1.65;0.10;;;36.50;24.60;;;;;;4936019;28;20424;-64
2022/07/18 12:39:57;;;;;;;0.20;0.20;;;36.60;24.60;;;;;;4937802;29;20044;-65
2022/07/18 12:42:31;;;;;;;0.93;0.13;;;36.60;24.60;;;;;;4928717;29;20044;-64
2022/07/18 12:44:58;;;;;;;0.75;0.10;;;36.60;24.50;;;;;;4928859;29;20397;-66
2022/07/18 12:47:26;;;;;;;2.08;0.10;;;36.70;24.50;;;;;;4930184;29;20044;-67
2022/07/18 12:49:53;;;;;;;0.10;0.10;;;36.70;24.50;;;;;;4935569;29;20055;-67
2022/07/18 12:52:20;;;;;;;0.50;0.20;;;36.70;24.40;;;;;;4928962;29;20083;-66
2022/07/18 12:54:48;;;;;;;0.93;0.13;;;36.80;24.50;;;;;;4928978;29;20055;-65
2022/07/18 12:57:15;;;;;;;4.47;0.20;;;36.80;24.50;;;;;;4928212;29;20047;-65
2022/07/18 12:59:44;;;;;;;2.92;0.10;;;36.90;24.50;;;;;;4935991;29;20517;-64
2022/07/18 13:02:11;;;;;;;2.88;0.10;;;36.90;24.50;;;;;;4929146;29;20048;-65
2022/07/18 13:04:39;;;;;;;0.85;0.10;;;36.90;24.50;;;;;;4928789;29;20044;-66